Latest Weather Observations for Karratha

IDW60801

Issued at 6:02 am WST Sunday 2 August 2015 (issued every 30 minutes, with the page automatically refreshed every 10 minutes)

About weather observations | Map of weather stations | Latest weather observations for WA | Other Formats
Station Details ID: 004083 Name: KARRATHA AERO Lat: -20.71 Lon: 116.77 Height: 5.3 m
Data from the previous 72 hours. | See also: Recent months at Karratha
Date/Time
WST
Temp
°C
App
Temp
°C
Dew
Point
Rel
Hum
%
Delta-T
°C
Wind Press
QNH
hPa
Press
MSL
hPa
Rain
since 9 am
mm
Dir
 
Spd
km/h
Gust
km/h
Spd
kts
Gust
kts
02/06:00am 15.2 15.1 13.4 89 1.0 W 6 7 3 4 1017.8 1017.8 0.0
02/05:30am 16.0 15.8 14.7 92 0.7 W 9 9 5 5 1017.2 1017.2 0.0
02/05:00am 15.4 15.6 14.6 95 0.5 WSW 7 11 4 6 1017.0 1017.0 0.0
02/04:30am 15.7 15.0 14.2 91 0.9 WSW 11 13 6 7 1017.0 1017.0 0.0
02/04:00am 16.5 16.1 15.2 92 0.8 WSW 11 13 6 7 1017.0 1017.0 0.0
02/03:30am 16.6 16.2 15.1 91 0.9 WSW 11 13 6 7 1017.0 1017.0 0.0
02/03:00am 16.8 16.0 15.2 90 0.9 WSW 13 15 7 8 1017.1 1017.1 0.0
02/02:30am 17.4 16.8 15.6 89 1.1 SW 13 13 7 7 1017.4 1017.4 0.0
02/02:00am 18.6 18.2 16.2 86 1.4 WSW 13 15 7 8 1017.6 1017.6 0.0
02/01:30am 19.0 17.8 16.2 84 1.7 WSW 17 20 9 11 1017.8 1017.8 0.0
02/01:00am 19.4 17.8 16.1 81 2.0 WSW 19 22 10 12 1017.9 1017.9 0.0
02/12:30am 19.4 17.7 15.7 79 2.2 WSW 19 22 10 12 1017.9 1017.9 0.0
02/12:00am 19.7 17.9 15.6 77 2.4 WSW 19 22 10 12 1017.8 1017.8 0.0
 
Date/Time
WST
Temp
°C
App
Temp
°C
Dew
Point
Rel
Hum
%
Delta-T
°C
Wind Press
QNH
hPa
Press
MSL
hPa
Rain
since 9 am
mm
Dir
 
Spd
km/h
Gust
km/h
Spd
kts
Gust
kts
01/11:30pm 20.0 18.2 15.4 75 2.7 WSW 19 20 10 11 1018.0 1018.0 0.0
01/11:00pm 20.3 19.0 15.7 75 2.7 WSW 17 20 9 11 1018.0 1018.0 0.0
01/10:30pm 20.4 19.1 15.8 75 2.7 WSW 17 20 9 11 1017.9 1017.9 0.0
01/10:00pm 20.9 19.1 16.1 74 2.9 WSW 20 24 11 13 1017.9 1017.9 0.0
01/09:30pm 21.3 19.3 16.5 74 2.9 WSW 22 28 12 15 1017.9 1017.9 0.0
01/09:00pm 21.6 19.3 16.6 73 3.0 WSW 24 30 13 16 1017.7 1017.7 0.0
01/08:30pm 22.0 19.3 15.6 67 3.8 WSW 24 28 13 15 1017.5 1017.5 0.0
01/08:00pm 22.5 19.4 15.6 65 4.1 WSW 26 32 14 17 1017.2 1017.2 0.0
01/07:30pm 22.9 19.2 16.0 65 4.2 WSW 30 37 16 20 1017.0 1017.0 0.0
01/07:00pm 23.3 20.1 17.3 69 3.7 W 30 37 16 20 1016.6 1016.6 0.0
01/06:30pm 23.9 21.0 16.2 62 4.7 W 26 33 14 18 1016.2 1016.2 0.0
01/06:00pm 24.2 20.5 17.0 64 4.4 W 32 37 17 20 1015.9 1015.9 0.0
01/05:30pm 25.0 21.2 16.7 60 5.1 W 32 39 17 21 1015.7 1015.7 0.0
01/05:00pm 25.9 21.6 17.0 58 5.5 W 35 43 19 23 1015.5 1015.5 0.0
01/04:30pm 25.8 22.4 18.2 63 4.8 W 33 39 18 21 1015.4 1015.4 0.0
01/04:00pm 26.4 23.1 18.3 61 5.1 W 33 41 18 22 1015.3 1015.3 0.0
01/03:30pm 27.3 23.3 17.5 55 6.2 W 35 43 19 23 1015.3 1015.3 0.0
01/03:00pm 28.1 24.2 16.4 49 7.3 W 32 39 17 21 1015.3 1015.3 0.0
01/02:30pm 28.0 24.4 17.2 52 6.8 W 32 37 17 20 1015.5 1015.5 0.0
01/02:00pm 29.2 26.3 16.0 44 8.2 W 26 32 14 17 1015.6 1015.6 0.0
01/01:30pm 29.5 26.8 14.5 40 9.1 W 22 30 12 16 1015.8 1015.8 0.0
01/01:00pm 29.1 26.0 14.5 41 8.8 WSW 24 30 13 16 1016.2 1016.2 0.0
01/12:30pm 29.2 25.7 14.6 41 8.8 WSW 26 33 14 18 1016.5 1016.5 0.0
01/12:00pm 28.4 25.6 15.3 45 8.0 SW 24 32 13 17 1016.9 1016.9 0.0
01/11:30am 28.0 26.0 15.6 46 7.6 SW 20 30 11 16 1017.3 1017.3 0.0
01/11:00am 27.5 24.9 15.8 48 7.2 SW 24 35 13 19 1017.7 1017.7 0.0
01/10:30am 27.4 25.6 16.1 50 7.0 SW 20 28 11 15 1018.0 1018.0 0.0
01/10:00am 26.3 23.4 16.0 53 6.3 SSW 26 35 14 19 1018.1 1018.1 0.0
01/09:30am 25.4 22.9 17.1 60 5.2 SSW 26 32 14 17 1018.0 1018.0 0.0
01/09:00am 23.8 23.1 18.2 71 3.5 SSW 19 26 10 14 1017.9 1017.9 0.0
01/08:30am 21.8 22.2 18.2 80 2.2 SW 13 17 7 9 1017.7 1017.7 0.0
01/08:00am 20.7 21.8 18.1 85 1.6 WSW 9 13 5 7 1017.3 1017.3 0.0
01/07:30am 19.3 19.6 17.8 91 0.9 WSW 13 15 7 8 1016.9 1016.9 0.0
01/07:00am 18.3 18.7 17.3 94 0.6 WSW 11 13 6 7 1016.5 1016.5 0.0
01/06:30am 18.6 18.8 17.6 94 0.6 WSW 13 17 7 9 1016.2 1016.2 0.0
01/06:00am 18.5 18.8 17.8 96 0.4 WSW 13 17 7 9 1015.9 1015.9 0.0
01/05:30am 17.5 19.5 17.0 97 0.3 WSW 2 7 1 4 1015.7 1015.7 0.0
01/05:00am 17.7 18.8 17.1 96 0.4 WSW 7 9 4 5 1015.4 1015.4 0.0
01/04:30am 18.3 18.5 17.7 96 0.4 WSW 13 15 7 8 1015.2 1015.2 0.0
01/04:00am 18.7 19.1 18.2 97 0.3 WSW 13 15 7 8 1015.1 1015.1 0.0
01/03:30am 19.2 19.9 18.9 98 0.2 WSW 13 17 7 9 1015.0 1015.0 0.0
01/03:00am 19.4 20.3 19.2 99 0.1 WSW 13 15 7 8 1015.3 1015.3 0.0
01/02:30am 20.0 20.7 19.7 98 0.2 WSW 15 17 8 9 1015.5 1015.5 0.0
01/02:00am 20.3 20.8 20.0 98 0.2 WSW 17 22 9 12 1015.7 1015.7 0.0
01/01:30am 20.6 20.9 20.3 98 0.2 WSW 19 24 10 13 1015.8 1015.8 0.0
01/01:00am 20.7 21.0 20.5 99 0.1 WSW 19 24 10 13 1016.0 1016.0 0.0
01/12:30am 20.8 21.7 20.8 100 0.0 WSW 17 20 9 11 1016.3 1016.3 0.0
01/12:00am 20.8 21.9 20.5 98 0.2 SW 15 17 8 9 1016.4 1016.4 0.0
 
Date/Time
WST
Temp
°C
App
Temp
°C
Dew
Point
Rel
Hum
%
Delta-T
°C
Wind Press
QNH
hPa
Press
MSL
hPa
Rain
since 9 am
mm
Dir
 
Spd
km/h
Gust
km/h
Spd
kts
Gust
kts
31/11:30pm 21.5 22.1 21.0 97 0.3 WSW 19 24 10 13 1016.4 1016.4 0.0
31/11:00pm 21.9 22.0 21.2 96 0.5 WSW 22 32 12 17 1016.5 1016.5 0.0
31/10:30pm 22.1 21.4 21.1 94 0.7 W 26 32 14 17 1016.4 1016.4 0.0
31/10:00pm 22.2 21.7 20.7 91 1.0 W 24 30 13 16 1016.3 1016.3 0.0
31/09:30pm 22.4 22.2 20.5 89 1.2 W 22 30 12 16 1016.3 1016.3 0.0
31/09:00pm 22.7 22.1 20.4 87 1.5 W 24 32 13 17 1016.3 1016.3 0.0
31/08:30pm 23.0 22.7 20.3 85 1.7 W 22 28 12 15 1016.2 1016.2 0.0
31/08:00pm 23.0 23.5 20.0 83 1.9 WNW 17 20 9 11 1015.8 1015.8 0.0
31/07:30pm 22.8 23.7 20.0 84 1.8 WNW 15 19 8 10 1015.4 1015.4 0.0
31/07:00pm 23.0 23.8 19.8 82 2.1 WNW 15 20 8 11 1015.1 1015.1 0.0
31/06:30pm 23.4 23.5 19.1 77 2.7 WNW 17 24 9 13 1014.9 1014.9 0.0
31/06:00pm 23.7 23.3 18.8 74 3.1 NW 19 26 10 14 1014.6 1014.6 0.0
31/05:30pm 24.6 23.7 19.0 71 3.6 NW 22 30 12 16 1014.6 1014.6 0.0
31/05:00pm 25.6 24.0 17.5 61 5.1 WNW 22 28 12 15 1014.4 1014.4 0.0
31/04:30pm 26.8 24.8 15.5 50 6.9 WNW 20 28 11 15 1014.2 1014.2 0.0
31/04:00pm 27.5 25.6 15.2 47 7.5 NW 19 24 10 13 1014.1 1014.1 0.0
31/03:30pm 27.2 25.0 15.9 50 6.9 NW 22 30 12 16 1014.2 1014.2 0.0
31/03:00pm 27.2 24.7 15.2 47 7.3 NNW 22 30 12 16 1014.2 1014.2 0.0
31/02:30pm 27.2 24.1 14.6 46 7.6 NNW 24 32 13 17 1014.1 1014.1 0.0
31/02:00pm 28.2 25.6 13.7 41 8.6 NNW 20 26 11 14 1014.3 1014.3 0.0
31/01:30pm 28.5 25.8 14.7 43 8.4 NNW 22 28 12 15 1014.7 1014.7 0.0
31/01:00pm 30.0 27.0 12.4 34 10.3 N 20 26 11 14 1015.2 1015.2 0.0
31/12:30pm 31.5 29.1 7.2 22 13.2 NNE 9 15 5 8 1015.2 1015.2 0.0
31/12:00pm 31.5 28.8 7.2 22 13.2 W 11 17 6 9 1015.6 1015.6 0.0
31/11:30am 30.4 27.8 9.3 27 11.8 W 13 15 7 8 1015.9 1015.9 0.0
31/11:00am 29.4 27.5 10.5 31 10.7 W 11 17 6 9 1016.4 1016.4 0.0
31/10:30am 28.6 27.2 12.1 36 9.6 W 11 13 6 7 1017.0 1017.0 0.0
31/10:00am 27.7 26.4 11.3 36 9.4 SW 9 17 5 9 1017.4 1017.4 0.0
31/09:30am 27.0 24.4 9.4 33 9.7 SSW 13 17 7 9 1017.6 1017.6 0.0
31/09:00am 25.2 23.3 10.6 40 8.1 SSW 11 15 6 8 1017.5 1017.5 0.0
31/08:30am 23.0 21.4 11.4 48 6.5 S 11 15 6 8 1017.2 1017.2 0.0
31/08:00am 20.0 18.8 11.5 58 4.7 SSW 9 13 5 7 1017.0 1017.0 0.0
31/07:30am 16.7 15.8 11.4 71 2.9 SSW 7 9 4 5 1016.8 1016.8 0.0
31/07:00am 15.6 16.0 11.4 76 2.3 CALM 0 0 0 0 1016.7 1016.7 0.0
31/06:30am 15.6 16.0 11.4 76 2.3 CALM 0 0 0 0 1016.6 1016.6 0.0
31/06:00am 15.5 15.9 11.3 76 2.2 CALM 0 6 0 3 1016.3 1016.3 0.0
31/05:30am 17.1 16.4 12.0 72 2.8 SSW 7 11 4 6 1016.2 1016.2 0.0
31/05:00am 16.2 14.4 12.2 77 2.2 SSW 13 15 7 8 1016.0 1016.0 0.0
31/04:30am 15.7 14.4 12.5 81 1.8 SSW 11 13 6 7 1016.1 1016.1 0.0
31/04:00am 15.5 14.2 12.6 83 1.6 SSE 11 13 6 7 1016.2 1016.2 0.0
31/03:30am 16.0 14.4 12.7 81 1.8 S 13 15 7 8 1016.4 1016.4 0.0
31/03:00am 15.8 14.6 12.9 83 1.6 S 11 13 6 7 1016.6 1016.6 0.0
31/02:30am 16.3 15.7 13.4 83 1.6 S 9 11 5 6 1016.7 1016.7 0.0
31/02:00am 16.7 16.8 14.0 84 1.5 SSE 6 7 3 4 1017.1 1017.1 0.0
31/01:30am 16.7 16.4 14.5 87 1.3 SSE 9 11 5 6 1017.6 1017.6 0.0
31/01:00am 17.1 15.9 15.1 88 1.2 S 15 19 8 10 1018.1 1018.1 0.0
31/12:30am 17.4 18.1 15.6 89 1.1 SE 6 7 3 4 1018.0 1018.0 0.0
31/12:00am 17.0 17.2 14.8 87 1.3 ESE 7 9 4 5 1018.1 1018.1 0.0
 
Date/Time
WST
Temp
°C
App
Temp
°C
Dew
Point
Rel
Hum
%
Delta-T
°C
Wind Press
QNH
hPa
Press
MSL
hPa
Rain
since 9 am
mm
Dir
 
Spd
km/h
Gust
km/h
Spd
kts
Gust
kts
30/11:30pm 17.5 17.6 15.5 88 1.2 SSE 9 9 5 5 1018.1 1018.1 0.0
30/11:00pm 17.7 18.2 15.5 87 1.3 S 7 9 4 5 1018.3 1018.3 0.0
30/10:30pm 18.9 20.0 16.5 86 1.4 SW 6 9 3 5 1018.5 1018.5 0.0
30/10:00pm 19.8 21.1 17.6 87 1.3 W 7 9 4 5 1018.5 1018.5 0.0
30/09:30pm 19.4 20.6 17.4 88 1.2 SSW 7 9 4 5 1018.5 1018.5 0.0
30/09:00pm 19.3 20.1 17.3 88 1.2 SSW 9 11 5 6 1018.4 1018.4 0.0
30/08:30pm 19.8 21.2 17.9 89 1.2 SSE 7 11 4 6 1018.3 1018.3 0.0
30/08:00pm 20.4 23.2 18.0 86 1.5 CALM 0 0 0 0 1018.1 1018.1 0.0
30/07:30pm 21.4 24.0 19.3 88 1.3 E 4 7 2 4 1018.0 1018.0 0.0
30/07:00pm 21.3 23.2 19.0 87 1.4 NE 7 9 4 5 1017.8 1017.8 0.0
30/06:30pm 21.9 23.7 19.5 86 1.5 NE 9 11 5 6 1017.6 1017.6 0.0
30/06:00pm 22.6 23.9 19.2 81 2.2 NNE 11 13 6 7 1017.4 1017.4 0.0
30/05:30pm 23.6 24.0 18.9 75 3.0 ENE 15 17 8 9 1017.4 1017.4 0.0
30/05:00pm 24.4 24.7 18.8 71 3.6 NE 15 17 8 9 1017.3 1017.3 0.0
30/04:30pm 25.1 24.8 18.3 66 4.3 NE 17 22 9 12 1017.1 1017.1 0.0
30/04:00pm 25.6 24.5 17.8 62 4.9 NE 20 24 11 13 1017.1 1017.1 0.0
30/03:30pm 25.9 24.0 16.7 57 5.7 NE 22 28 12 15 1017.1 1017.1 0.0
30/03:00pm 26.0 23.4 16.0 54 6.1 NE 24 30 13 16 1017.3 1017.3 0.0
30/02:30pm 26.6 23.9 15.6 50 6.7 NE 24 30 13 16 1017.5 1017.5 0.0
30/02:00pm 26.9 23.1 13.6 44 7.8 NE 26 32 14 17 1017.7 1017.7 0.0
30/01:30pm 27.2 23.0 12.4 40 8.6 ENE 26 30 14 16 1018.0 1018.0 0.0
30/01:00pm 27.8 22.8 10.9 35 9.6 ENE 28 32 15 17 1018.4 1018.4 0.0
30/12:30pm 28.1 23.2 12.4 37 9.1 ENE 30 37 16 20 1018.7 1018.7 0.0
30/12:00pm 28.1 24.1 14.0 42 8.4 NE 28 35 15 19 1019.0 1019.0 0.0
30/11:30am 27.9 24.9 14.9 45 7.9 NE 24 28 13 15 1019.4 1019.4 0.0
30/11:00am 26.7 24.3 15.4 50 6.8 NE 22 28 12 15 1019.8 1019.8 0.0
30/10:30am 26.2 23.9 14.6 48 6.9 NE 20 24 11 13 1019.9 1019.9 0.0
30/10:00am 26.8 25.2 13.9 45 7.6 ENE 15 17 8 9 1020.0 1020.0 0.0
30/09:30am 26.0 25.0 14.5 49 6.9 ENE 13 17 7 9 1019.9 1019.9 0.0
30/09:00am 25.4 24.0 13.3 47 7.1 E 13 15 7 8 1019.8 1019.8 0.0
30/08:30am 24.0 23.5 13.8 53 6.0 ESE 9 11 5 6 1019.7 1019.7 0.0
30/08:00am 20.8 20.6 13.7 64 4.1 S 7 9 4 5 1019.3 1019.3 0.0
30/07:30am 18.1 18.0 13.4 74 2.7 SE 6 11 3 6 1018.8 1018.8 0.0
30/07:00am 16.5 16.9 12.5 77 2.2 SE 2 6 1 3 1018.4 1018.4 0.0
30/06:30am 17.6 17.5 13.3 76 2.4 NE 6 7 3 4 1018.0 1018.0 0.0

Other Formats:

Comma delimited format used in spreadsheet applications
http://www.bom.gov.au/fwo/IDW60801/IDW60801.95307.axf

JavaScript Object Notation format (JSON) in row-major order
http://www.bom.gov.au/fwo/IDW60801/IDW60801.95307.json